Big Horn, Wyoming
Current Conditions -  °F | °C
As of 8:53 AM on Sunday 25 Jan 2015 (Local Time) from KSHR Reporting Station
Few Clouds Few Clouds  
Wind Chill: 30°   Ceiling: Unl
Heat Index: 36°   Visibility: 10mi
Dew Point: 31°   Wind: 7mph
Humidity: 82%   Direction: 190°S
Pressure: 30.05"   Gusts: NA
Location:  44.68°N, 106.99°W
Report Text: KSHR 251553Z AUTO 19006KT 10SM FEW070 02/M01 A3005 RMK AO2 SLP197 T00221006
Loading
Personal Weather Stations






























Interactive Weather Map New forecast layout! Learn more

10-Day Weather Forecast

Advertisements
Track Severe Weather on mobile